sensor_id;sensor_type;location;lat;lon;timestamp;P1;durP1;ratioP1;P2;durP2;ratioP2
58366;SDS011;57745;42.524;12.052;2023-06-22T00:01:16;4.05;;;3.20;;
58366;SDS011;57745;42.524;12.052;2023-06-22T00:03:41;5.50;;;3.38;;
58366;SDS011;57745;42.524;12.052;2023-06-22T00:06:07;4.60;;;3.08;;
58366;SDS011;57745;42.524;12.052;2023-06-22T00:08:32;3.83;;;2.97;;
58366;SDS011;57745;42.524;12.052;2023-06-22T00:10:58;4.47;;;3.13;;
58366;SDS011;57745;42.524;12.052;2023-06-22T00:13:23;4.10;;;3.35;;
58366;SDS011;57745;42.524;12.052;2023-06-22T00:15:48;4.05;;;3.00;;
58366;SDS011;57745;42.524;12.052;2023-06-22T00:18:14;5.57;;;3.10;;
58366;SDS011;57745;42.524;12.052;2023-06-22T00:20:41;4.30;;;3.33;;
58366;SDS011;57745;42.524;12.052;2023-06-22T00:23:07;5.00;;;3.20;;
58366;SDS011;57745;42.524;12.052;2023-06-22T00:25:37;6.30;;;3.03;;
58366;SDS011;57745;42.524;12.052;2023-06-22T00:28:05;5.15;;;3.70;;
58366;SDS011;57745;42.524;12.052;2023-06-22T00:30:31;4.63;;;3.17;;
58366;SDS011;57745;42.524;12.052;2023-06-22T00:32:57;4.07;;;3.35;;
58366;SDS011;57745;42.524;12.052;2023-06-22T00:35:24;6.60;;;3.47;;
58366;SDS011;57745;42.524;12.052;2023-06-22T00:37:58;5.57;;;3.45;;
58366;SDS011;57745;42.524;12.052;2023-06-22T00:40:28;7.10;;;3.63;;
58366;SDS011;57745;42.524;12.052;2023-06-22T00:42:54;6.93;;;3.42;;
58366;SDS011;57745;42.524;12.052;2023-06-22T00:45:21;4.22;;;3.38;;
58366;SDS011;57745;42.524;12.052;2023-06-22T00:47:48;6.95;;;3.90;;
58366;SDS011;57745;42.524;12.052;2023-06-22T00:50:18;6.28;;;3.40;;
58366;SDS011;57745;42.524;12.052;2023-06-22T00:52:52;4.50;;;3.50;;
58366;SDS011;57745;42.524;12.052;2023-06-22T00:55:21;5.00;;;3.20;;
58366;SDS011;57745;42.524;12.052;2023-06-22T00:57:48;4.78;;;3.08;;
58366;SDS011;57745;42.524;12.052;2023-06-22T01:00:15;5.75;;;3.60;;
58366;SDS011;57745;42.524;12.052;2023-06-22T01:02:45;5.68;;;3.42;;
58366;SDS011;57745;42.524;12.052;2023-06-22T01:05:14;6.00;;;3.40;;
58366;SDS011;57745;42.524;12.052;2023-06-22T01:10:16;4.43;;;3.42;;
58366;SDS011;57745;42.524;12.052;2023-06-22T01:12:58;4.75;;;3.53;;
58366;SDS011;57745;42.524;12.052;2023-06-22T01:16:02;4.97;;;3.63;;
58366;SDS011;57745;42.524;12.052;2023-06-22T01:18:32;5.63;;;3.42;;
58366;SDS011;57745;42.524;12.052;2023-06-22T01:21:02;5.97;;;3.90;;
58366;SDS011;57745;42.524;12.052;2023-06-22T01:28:47;3.78;;;3.33;;
58366;SDS011;57745;42.524;12.052;2023-06-22T01:31:15;6.55;;;3.47;;
58366;SDS011;57745;42.524;12.052;2023-06-22T01:33:43;3.55;;;3.00;;
58366;SDS011;57745;42.524;12.052;2023-06-22T01:36:11;4.43;;;3.20;;
58366;SDS011;57745;42.524;12.052;2023-06-22T01:38:38;4.07;;;3.42;;
58366;SDS011;57745;42.524;12.052;2023-06-22T01:41:04;4.85;;;3.63;;
58366;SDS011;57745;42.524;12.052;2023-06-22T01:43:30;4.90;;;3.75;;
58366;SDS011;57745;42.524;12.052;2023-06-22T01:45:58;4.85;;;3.20;;
58366;SDS011;57745;42.524;12.052;2023-06-22T01:48:25;5.70;;;3.60;;
58366;SDS011;57745;42.524;12.052;2023-06-22T01:50:51;4.63;;;3.10;;
58366;SDS011;57745;42.524;12.052;2023-06-22T01:53:20;5.18;;;3.38;;
58366;SDS011;57745;42.524;12.052;2023-06-22T01:55:48;4.47;;;3.28;;
58366;SDS011;57745;42.524;12.052;2023-06-22T01:58:14;4.78;;;3.40;;
58366;SDS011;57745;42.524;12.052;2023-06-22T02:00:41;4.55;;;3.10;;
58366;SDS011;57745;42.524;12.052;2023-06-22T02:03:14;4.82;;;2.92;;
58366;SDS011;57745;42.524;12.052;2023-06-22T02:05:49;7.97;;;3.50;;
58366;SDS011;57745;42.524;12.052;2023-06-22T02:08:21;4.55;;;3.30;;
58366;SDS011;57745;42.524;12.052;2023-06-22T02:10:49;3.65;;;3.15;;
58366;SDS011;57745;42.524;12.052;2023-06-22T02:13:16;4.82;;;3.05;;
58366;SDS011;57745;42.524;12.052;2023-06-22T02:15:43;5.70;;;3.33;;
58366;SDS011;57745;42.524;12.052;2023-06-22T02:18:09;3.97;;;3.17;;
58366;SDS011;57745;42.524;12.052;2023-06-22T02:20:38;5.05;;;3.67;;
58366;SDS011;57745;42.524;12.052;2023-06-22T02:23:04;5.00;;;3.45;;
58366;SDS011;57745;42.524;12.052;2023-06-22T02:25:31;7.28;;;3.50;;
58366;SDS011;57745;42.524;12.052;2023-06-22T02:27:57;3.88;;;3.47;;
58366;SDS011;57745;42.524;12.052;2023-06-22T02:30:22;4.40;;;3.42;;
58366;SDS011;57745;42.524;12.052;2023-06-22T02:32:47;4.13;;;3.20;;
58366;SDS011;57745;42.524;12.052;2023-06-22T02:35:13;6.47;;;3.45;;
58366;SDS011;57745;42.524;12.052;2023-06-22T02:37:38;3.85;;;3.28;;
58366;SDS011;57745;42.524;12.052;2023-06-22T02:40:06;3.67;;;3.33;;
58366;SDS011;57745;42.524;12.052;2023-06-22T02:42:34;5.53;;;3.20;;
58366;SDS011;57745;42.524;12.052;2023-06-22T02:44:59;5.18;;;3.53;;
58366;SDS011;57745;42.524;12.052;2023-06-22T02:47:25;4.53;;;3.40;;
58366;SDS011;57745;42.524;12.052;2023-06-22T02:49:51;3.92;;;3.20;;
58366;SDS011;57745;42.524;12.052;2023-06-22T02:52:16;10.63;;;3.33;;
58366;SDS011;57745;42.524;12.052;2023-06-22T02:54:42;4.80;;;3.42;;
58366;SDS011;57745;42.524;12.052;2023-06-22T02:57:10;4.50;;;3.40;;
58366;SDS011;57745;42.524;12.052;2023-06-22T02:59:38;4.25;;;2.90;;
58366;SDS011;57745;42.524;12.052;2023-06-22T03:02:08;6.28;;;3.65;;
58366;SDS011;57745;42.524;12.052;2023-06-22T03:04:35;4.90;;;3.25;;
58366;SDS011;57745;42.524;12.052;2023-06-22T03:07:01;5.93;;;3.65;;
58366;SDS011;57745;42.524;12.052;2023-06-22T03:09:27;4.90;;;3.53;;
58366;SDS011;57745;42.524;12.052;2023-06-22T03:11:56;4.80;;;3.00;;
58366;SDS011;57745;42.524;12.052;2023-06-22T03:14:21;6.03;;;3.28;;
58366;SDS011;57745;42.524;12.052;2023-06-22T03:16:47;5.43;;;3.35;;
58366;SDS011;57745;42.524;12.052;2023-06-22T03:19:12;5.97;;;3.55;;
58366;SDS011;57745;42.524;12.052;2023-06-22T03:21:38;4.40;;;3.42;;
58366;SDS011;57745;42.524;12.052;2023-06-22T03:24:04;5.78;;;3.40;;
58366;SDS011;57745;42.524;12.052;2023-06-22T03:26:30;11.40;;;3.67;;
58366;SDS011;57745;42.524;12.052;2023-06-22T03:28:56;5.20;;;3.03;;
58366;SDS011;57745;42.524;12.052;2023-06-22T03:31:22;4.47;;;3.05;;
58366;SDS011;57745;42.524;12.052;2023-06-22T03:33:51;5.90;;;3.33;;
58366;SDS011;57745;42.524;12.052;2023-06-22T03:36:17;4.65;;;3.38;;
58366;SDS011;57745;42.524;12.052;2023-06-22T03:38:47;5.07;;;3.58;;
58366;SDS011;57745;42.524;12.052;2023-06-22T03:41:13;5.32;;;3.30;;
58366;SDS011;57745;42.524;12.052;2023-06-22T03:43:39;5.78;;;3.35;;
58366;SDS011;57745;42.524;12.052;2023-06-22T03:46:05;8.52;;;3.45;;
58366;SDS011;57745;42.524;12.052;2023-06-22T03:48:30;4.93;;;3.30;;
58366;SDS011;57745;42.524;12.052;2023-06-22T03:50:56;6.78;;;3.13;;
58366;SDS011;57745;42.524;12.052;2023-06-22T03:53:21;7.57;;;3.47;;
58366;SDS011;57745;42.524;12.052;2023-06-22T03:55:50;4.65;;;3.40;;
58366;SDS011;57745;42.524;12.052;2023-06-22T03:58:17;3.13;;;2.67;;
58366;SDS011;57745;42.524;12.052;2023-06-22T04:00:53;5.13;;;3.17;;
58366;SDS011;57745;42.524;12.052;2023-06-22T04:03:18;3.78;;;2.95;;
58366;SDS011;57745;42.524;12.052;2023-06-22T04:05:44;3.47;;;3.00;;
58366;SDS011;57745;42.524;12.052;2023-06-22T04:08:10;4.55;;;2.83;;
58366;SDS011;57745;42.524;12.052;2023-06-22T04:10:37;6.07;;;3.38;;
58366;SDS011;57745;42.524;12.052;2023-06-22T04:13:02;5.38;;;3.15;;
58366;SDS011;57745;42.524;12.052;2023-06-22T04:15:28;5.60;;;3.42;;
58366;SDS011;57745;42.524;12.052;2023-06-22T04:17:54;4.93;;;2.90;;
58366;SDS011;57745;42.524;12.052;2023-06-22T04:20:20;4.05;;;2.80;;
58366;SDS011;57745;42.524;12.052;2023-06-22T04:22:45;4.95;;;2.72;;
58366;SDS011;57745;42.524;12.052;2023-06-22T04:25:11;4.32;;;2.75;;
58366;SDS011;57745;42.524;12.052;2023-06-22T04:27:36;4.68;;;3.28;;
58366;SDS011;57745;42.524;12.052;2023-06-22T04:30:05;4.82;;;3.20;;
58366;SDS011;57745;42.524;12.052;2023-06-22T04:32:32;4.93;;;3.30;;
58366;SDS011;57745;42.524;12.052;2023-06-22T04:34:58;5.22;;;3.33;;
58366;SDS011;57745;42.524;12.052;2023-06-22T04:37:25;4.03;;;3.15;;
58366;SDS011;57745;42.524;12.052;2023-06-22T04:39:51;5.32;;;2.75;;
58366;SDS011;57745;42.524;12.052;2023-06-22T04:42:16;4.72;;;2.90;;
58366;SDS011;57745;42.524;12.052;2023-06-22T04:44:42;4.05;;;3.08;;
58366;SDS011;57745;42.524;12.052;2023-06-22T04:47:07;3.20;;;2.72;;
58366;SDS011;57745;42.524;12.052;2023-06-22T04:49:36;3.75;;;3.20;;
58366;SDS011;57745;42.524;12.052;2023-06-22T04:52:06;2.92;;;2.40;;
58366;SDS011;57745;42.524;12.052;2023-06-22T04:54:33;3.60;;;2.92;;
58366;SDS011;57745;42.524;12.052;2023-06-22T04:57:03;3.88;;;3.05;;
58366;SDS011;57745;42.524;12.052;2023-06-22T04:59:35;8.23;;;3.55;;
58366;SDS011;57745;42.524;12.052;2023-06-22T05:02:04;7.85;;;3.97;;
58366;SDS011;57745;42.524;12.052;2023-06-22T05:04:30;8.07;;;4.50;;
58366;SDS011;57745;42.524;12.052;2023-06-22T05:06:56;5.53;;;3.83;;
58366;SDS011;57745;42.524;12.052;2023-06-22T05:09:22;7.78;;;3.42;;
58366;SDS011;57745;42.524;12.052;2023-06-22T05:11:49;11.80;;;4.57;;
58366;SDS011;57745;42.524;12.052;2023-06-22T05:14:15;8.65;;;3.75;;
58366;SDS011;57745;42.524;12.052;2023-06-22T05:16:41;7.50;;;3.83;;
58366;SDS011;57745;42.524;12.052;2023-06-22T05:19:07;6.32;;;3.30;;
58366;SDS011;57745;42.524;12.052;2023-06-22T05:21:32;7.57;;;3.53;;
58366;SDS011;57745;42.524;12.052;2023-06-22T05:23:58;6.95;;;3.20;;
58366;SDS011;57745;42.524;12.052;2023-06-22T05:26:32;5.32;;;3.42;;
58366;SDS011;57745;42.524;12.052;2023-06-22T05:28:59;6.50;;;2.80;;
58366;SDS011;57745;42.524;12.052;2023-06-22T05:31:26;5.50;;;3.30;;
58366;SDS011;57745;42.524;12.052;2023-06-22T05:33:52;3.42;;;2.95;;
58366;SDS011;57745;42.524;12.052;2023-06-22T05:36:19;4.20;;;3.22;;
58366;SDS011;57745;42.524;12.052;2023-06-22T05:38:50;5.00;;;3.20;;
58366;SDS011;57745;42.524;12.052;2023-06-22T05:41:18;4.50;;;3.63;;
58366;SDS011;57745;42.524;12.052;2023-06-22T05:43:44;6.22;;;3.35;;
58366;SDS011;57745;42.524;12.052;2023-06-22T05:46:09;3.50;;;2.95;;
58366;SDS011;57745;42.524;12.052;2023-06-22T05:48:35;5.10;;;3.20;;
58366;SDS011;57745;42.524;12.052;2023-06-22T05:51:01;4.63;;;3.00;;
58366;SDS011;57745;42.524;12.052;2023-06-22T05:53:26;4.97;;;3.47;;
58366;SDS011;57745;42.524;12.052;2023-06-22T05:55:52;4.05;;;3.22;;
58366;SDS011;57745;42.524;12.052;2023-06-22T05:58:17;4.10;;;3.22;;
58366;SDS011;57745;42.524;12.052;2023-06-22T06:00:43;5.93;;;3.63;;
58366;SDS011;57745;42.524;12.052;2023-06-22T06:03:09;3.38;;;2.90;;
58366;SDS011;57745;42.524;12.052;2023-06-22T06:05:35;4.15;;;3.00;;
58366;SDS011;57745;42.524;12.052;2023-06-22T06:08:02;4.20;;;2.70;;
58366;SDS011;57745;42.524;12.052;2023-06-22T06:10:32;5.35;;;3.50;;
58366;SDS011;57745;42.524;12.052;2023-06-22T06:12:59;5.28;;;3.17;;
58366;SDS011;57745;42.524;12.052;2023-06-22T06:15:27;4.47;;;2.90;;
58366;SDS011;57745;42.524;12.052;2023-06-22T06:17:53;4.50;;;3.50;;
58366;SDS011;57745;42.524;12.052;2023-06-22T06:20:19;4.78;;;3.03;;
58366;SDS011;57745;42.524;12.052;2023-06-22T06:22:48;5.82;;;3.10;;
58366;SDS011;57745;42.524;12.052;2023-06-22T06:25:14;4.05;;;3.22;;
58366;SDS011;57745;42.524;12.052;2023-06-22T06:27:48;5.47;;;3.10;;
58366;SDS011;57745;42.524;12.052;2023-06-22T06:30:15;4.75;;;3.22;;
58366;SDS011;57745;42.524;12.052;2023-06-22T06:32:42;5.32;;;3.08;;
58366;SDS011;57745;42.524;12.052;2023-06-22T06:35:10;5.53;;;3.15;;
58366;SDS011;57745;42.524;12.052;2023-06-22T06:37:38;5.32;;;3.00;;
58366;SDS011;57745;42.524;12.052;2023-06-22T06:40:05;7.47;;;3.20;;
58366;SDS011;57745;42.524;12.052;2023-06-22T06:42:35;3.70;;;2.97;;
58366;SDS011;57745;42.524;12.052;2023-06-22T06:45:03;5.50;;;3.38;;
58366;SDS011;57745;42.524;12.052;2023-06-22T06:47:29;4.03;;;3.17;;
58366;SDS011;57745;42.524;12.052;2023-06-22T06:49:55;6.70;;;3.30;;
58366;SDS011;57745;42.524;12.052;2023-06-22T06:52:20;6.72;;;3.88;;
58366;SDS011;57745;42.524;12.052;2023-06-22T06:54:46;7.50;;;3.50;;
58366;SDS011;57745;42.524;12.052;2023-06-22T06:57:11;4.82;;;3.33;;
58366;SDS011;57745;42.524;12.052;2023-06-22T06:59:38;4.25;;;3.17;;
58366;SDS011;57745;42.524;12.052;2023-06-22T07:02:04;5.20;;;3.35;;
58366;SDS011;57745;42.524;12.052;2023-06-22T07:04:30;3.80;;;3.20;;
58366;SDS011;57745;42.524;12.052;2023-06-22T07:06:55;6.10;;;3.50;;
58366;SDS011;57745;42.524;12.052;2023-06-22T07:09:21;7.72;;;3.35;;
58366;SDS011;57745;42.524;12.052;2023-06-22T07:11:46;7.68;;;3.42;;
58366;SDS011;57745;42.524;12.052;2023-06-22T07:14:11;7.93;;;3.25;;
58366;SDS011;57745;42.524;12.052;2023-06-22T07:16:37;6.95;;;3.20;;
58366;SDS011;57745;42.524;12.052;2023-06-22T07:19:02;4.95;;;2.97;;
58366;SDS011;57745;42.524;12.052;2023-06-22T07:21:28;7.50;;;3.70;;
58366;SDS011;57745;42.524;12.052;2023-06-22T07:23:53;4.32;;;2.80;;
58366;SDS011;57745;42.524;12.052;2023-06-22T07:26:19;5.18;;;3.00;;
58366;SDS011;57745;42.524;12.052;2023-06-22T07:28:45;5.50;;;3.25;;
58366;SDS011;57745;42.524;12.052;2023-06-22T07:31:11;8.68;;;3.35;;
58366;SDS011;57745;42.524;12.052;2023-06-22T07:33:36;7.30;;;3.17;;
58366;SDS011;57745;42.524;12.052;2023-06-22T07:36:02;4.38;;;3.17;;
58366;SDS011;57745;42.524;12.052;2023-06-22T07:38:32;8.32;;;3.25;;
58366;SDS011;57745;42.524;12.052;2023-06-22T07:40:58;6.30;;;3.88;;
58366;SDS011;57745;42.524;12.052;2023-06-22T07:43:23;6.32;;;3.40;;
58366;SDS011;57745;42.524;12.052;2023-06-22T07:45:49;5.15;;;3.03;;
58366;SDS011;57745;42.524;12.052;2023-06-22T07:48:21;8.63;;;3.45;;
58366;SDS011;57745;42.524;12.052;2023-06-22T07:50:47;7.53;;;3.67;;
58366;SDS011;57745;42.524;12.052;2023-06-22T07:53:13;4.97;;;3.55;;
58366;SDS011;57745;42.524;12.052;2023-06-22T07:55:38;7.50;;;3.20;;
58366;SDS011;57745;42.524;12.052;2023-06-22T07:58:04;4.78;;;3.10;;
58366;SDS011;57745;42.524;12.052;2023-06-22T08:00:29;7.72;;;3.58;;
58366;SDS011;57745;42.524;12.052;2023-06-22T08:02:54;5.72;;;3.15;;
58366;SDS011;57745;42.524;12.052;2023-06-22T08:05:20;5.65;;;3.22;;
58366;SDS011;57745;42.524;12.052;2023-06-22T08:07:45;5.20;;;3.45;;
58366;SDS011;57745;42.524;12.052;2023-06-22T08:10:11;5.05;;;3.20;;
58366;SDS011;57745;42.524;12.052;2023-06-22T08:12:37;3.80;;;3.15;;
58366;SDS011;57745;42.524;12.052;2023-06-22T08:15:03;5.70;;;3.50;;
58366;SDS011;57745;42.524;12.052;2023-06-22T08:17:30;6.22;;;3.45;;
58366;SDS011;57745;42.524;12.052;2023-06-22T08:19:56;10.82;;;3.58;;
58366;SDS011;57745;42.524;12.052;2023-06-22T08:22:21;6.43;;;4.55;;
58366;SDS011;57745;42.524;12.052;2023-06-22T08:24:47;6.95;;;3.42;;
58366;SDS011;57745;42.524;12.052;2023-06-22T08:27:13;5.32;;;3.38;;
58366;SDS011;57745;42.524;12.052;2023-06-22T08:29:39;6.80;;;3.40;;
58366;SDS011;57745;42.524;12.052;2023-06-22T08:32:08;6.15;;;3.47;;
58366;SDS011;57745;42.524;12.052;2023-06-22T08:34:37;7.90;;;3.60;;
58366;SDS011;57745;42.524;12.052;2023-06-22T08:37:07;6.88;;;3.90;;
58366;SDS011;57745;42.524;12.052;2023-06-22T08:39:33;5.00;;;3.53;;
58366;SDS011;57745;42.524;12.052;2023-06-22T08:41:59;4.90;;;3.40;;
58366;SDS011;57745;42.524;12.052;2023-06-22T08:44:25;5.13;;;3.35;;
58366;SDS011;57745;42.524;12.052;2023-06-22T08:46:50;7.07;;;3.70;;
58366;SDS011;57745;42.524;12.052;2023-06-22T08:49:16;6.90;;;3.47;;
58366;SDS011;57745;42.524;12.052;2023-06-22T08:51:41;7.15;;;3.67;;
58366;SDS011;57745;42.524;12.052;2023-06-22T08:54:06;7.53;;;3.38;;
58366;SDS011;57745;42.524;12.052;2023-06-22T08:56:32;6.43;;;3.30;;
58366;SDS011;57745;42.524;12.052;2023-06-22T08:58:57;4.68;;;3.58;;
58366;SDS011;57745;42.524;12.052;2023-06-22T09:01:23;6.28;;;3.50;;
58366;SDS011;57745;42.524;12.052;2023-06-22T09:03:49;6.60;;;3.70;;
58366;SDS011;57745;42.524;12.052;2023-06-22T09:06:20;3.80;;;3.08;;
58366;SDS011;57745;42.524;12.052;2023-06-22T09:08:46;5.32;;;3.17;;
58366;SDS011;57745;42.524;12.052;2023-06-22T09:11:12;4.50;;;3.00;;
58366;SDS011;57745;42.524;12.052;2023-06-22T09:13:38;10.18;;;3.35;;
58366;SDS011;57745;42.524;12.052;2023-06-22T09:16:03;5.90;;;2.90;;
58366;SDS011;57745;42.524;12.052;2023-06-22T09:18:29;9.43;;;3.88;;
58366;SDS011;57745;42.524;12.052;2023-06-22T09:20:55;6.90;;;3.78;;
58366;SDS011;57745;42.524;12.052;2023-06-22T09:23:21;5.43;;;3.50;;
58366;SDS011;57745;42.524;12.052;2023-06-22T09:25:46;4.60;;;3.30;;
58366;SDS011;57745;42.524;12.052;2023-06-22T09:28:13;7.00;;;2.83;;
58366;SDS011;57745;42.524;12.052;2023-06-22T09:30:39;5.95;;;3.05;;
58366;SDS011;57745;42.524;12.052;2023-06-22T09:33:04;9.05;;;2.78;;
58366;SDS011;57745;42.524;12.052;2023-06-22T09:35:30;4.80;;;3.25;;
58366;SDS011;57745;42.524;12.052;2023-06-22T09:37:55;6.93;;;3.35;;
58366;SDS011;57745;42.524;12.052;2023-06-22T09:40:21;5.00;;;2.80;;
58366;SDS011;57745;42.524;12.052;2023-06-22T09:46:04;5.35;;;2.97;;
58366;SDS011;57745;42.524;12.052;2023-06-22T09:48:29;4.45;;;3.00;;
58366;SDS011;57745;42.524;12.052;2023-06-22T09:50:55;6.18;;;2.80;;
58366;SDS011;57745;42.524;12.052;2023-06-22T09:53:21;4.15;;;2.95;;
58366;SDS011;57745;42.524;12.052;2023-06-22T09:55:47;3.72;;;2.60;;
58366;SDS011;57745;42.524;12.052;2023-06-22T09:58:12;6.10;;;2.90;;
58366;SDS011;57745;42.524;12.052;2023-06-22T10:00:41;5.90;;;2.88;;
58366;SDS011;57745;42.524;12.052;2023-06-22T10:03:06;5.43;;;2.72;;
58366;SDS011;57745;42.524;12.052;2023-06-22T10:05:32;6.07;;;2.88;;
58366;SDS011;57745;42.524;12.052;2023-06-22T10:07:57;4.32;;;2.63;;
58366;SDS011;57745;42.524;12.052;2023-06-22T10:10:23;7.60;;;2.67;;
58366;SDS011;57745;42.524;12.052;2023-06-22T10:12:54;5.45;;;2.50;;
58366;SDS011;57745;42.524;12.052;2023-06-22T10:15:21;6.15;;;2.85;;
58366;SDS011;57745;42.524;12.052;2023-06-22T10:17:46;3.60;;;2.63;;
58366;SDS011;57745;42.524;12.052;2023-06-22T10:20:12;7.45;;;2.83;;
58366;SDS011;57745;42.524;12.052;2023-06-22T10:22:41;4.65;;;2.92;;
58366;SDS011;57745;42.524;12.052;2023-06-22T10:25:08;5.57;;;3.10;;
58366;SDS011;57745;42.524;12.052;2023-06-22T10:27:35;7.10;;;3.15;;
58366;SDS011;57745;42.524;12.052;2023-06-22T10:30:00;6.80;;;3.40;;
58366;SDS011;57745;42.524;12.052;2023-06-22T10:32:26;5.82;;;2.95;;
58366;SDS011;57745;42.524;12.052;2023-06-22T10:34:53;5.50;;;3.45;;
58366;SDS011;57745;42.524;12.052;2023-06-22T10:37:19;12.48;;;3.53;;
58366;SDS011;57745;42.524;12.052;2023-06-22T10:39:44;4.50;;;3.10;;
58366;SDS011;57745;42.524;12.052;2023-06-22T10:42:10;6.38;;;3.33;;
58366;SDS011;57745;42.524;12.052;2023-06-22T10:44:36;6.35;;;3.70;;
58366;SDS011;57745;42.524;12.052;2023-06-22T10:47:01;6.72;;;3.63;;
58366;SDS011;57745;42.524;12.052;2023-06-22T10:49:26;9.32;;;3.55;;
58366;SDS011;57745;42.524;12.052;2023-06-22T10:51:52;6.85;;;3.25;;
58366;SDS011;57745;42.524;12.052;2023-06-22T10:54:17;9.07;;;3.60;;
58366;SDS011;57745;42.524;12.052;2023-06-22T10:56:44;6.95;;;3.22;;
58366;SDS011;57745;42.524;12.052;2023-06-22T10:59:09;5.72;;;3.10;;
58366;SDS011;57745;42.524;12.052;2023-06-22T11:01:35;8.25;;;3.17;;
58366;SDS011;57745;42.524;12.052;2023-06-22T11:04:01;5.93;;;2.95;;
58366;SDS011;57745;42.524;12.052;2023-06-22T11:06:27;3.75;;;3.08;;
58366;SDS011;57745;42.524;12.052;2023-06-22T11:08:52;5.80;;;2.80;;
58366;SDS011;57745;42.524;12.052;2023-06-22T11:11:18;5.05;;;3.15;;
58366;SDS011;57745;42.524;12.052;2023-06-22T11:13:43;6.57;;;2.95;;
58366;SDS011;57745;42.524;12.052;2023-06-22T11:16:09;9.57;;;3.42;;
58366;SDS011;57745;42.524;12.052;2023-06-22T11:18:35;8.55;;;3.15;;
58366;SDS011;57745;42.524;12.052;2023-06-22T11:21:01;9.43;;;3.38;;
58366;SDS011;57745;42.524;12.052;2023-06-22T11:23:26;5.95;;;3.08;;
58366;SDS011;57745;42.524;12.052;2023-06-22T11:25:53;7.50;;;2.80;;
58366;SDS011;57745;42.524;12.052;2023-06-22T11:28:18;6.70;;;3.53;;
58366;SDS011;57745;42.524;12.052;2023-06-22T11:30:44;8.98;;;3.10;;
58366;SDS011;57745;42.524;12.052;2023-06-22T11:33:09;7.80;;;3.13;;
58366;SDS011;57745;42.524;12.052;2023-06-22T11:35:35;8.57;;;3.05;;
58366;SDS011;57745;42.524;12.052;2023-06-22T11:38:00;5.43;;;2.90;;
58366;SDS011;57745;42.524;12.052;2023-06-22T11:40:26;5.13;;;2.30;;
58366;SDS011;57745;42.524;12.052;2023-06-22T11:42:51;5.47;;;2.28;;
58366;SDS011;57745;42.524;12.052;2023-06-22T11:45:17;7.18;;;2.75;;
58366;SDS011;57745;42.524;12.052;2023-06-22T11:47:43;7.30;;;2.50;;
58366;SDS011;57745;42.524;12.052;2023-06-22T11:50:09;5.60;;;2.63;;
58366;SDS011;57745;42.524;12.052;2023-06-22T11:52:35;6.90;;;2.67;;
58366;SDS011;57745;42.524;12.052;2023-06-22T11:55:03;9.05;;;2.75;;
58366;SDS011;57745;42.524;12.052;2023-06-22T11:57:32;5.85;;;2.67;;
58366;SDS011;57745;42.524;12.052;2023-06-22T11:59:59;6.03;;;2.60;;
58366;SDS011;57745;42.524;12.052;2023-06-22T12:02:24;7.28;;;2.45;;
58366;SDS011;57745;42.524;12.052;2023-06-22T12:04:50;6.22;;;2.15;;
58366;SDS011;57745;42.524;12.052;2023-06-22T12:07:17;8.65;;;2.70;;
58366;SDS011;57745;42.524;12.052;2023-06-22T12:09:43;5.68;;;2.03;;
58366;SDS011;57745;42.524;12.052;2023-06-22T12:12:09;9.10;;;2.80;;
58366;SDS011;57745;42.524;12.052;2023-06-22T12:14:35;6.00;;;2.88;;
58366;SDS011;57745;42.524;12.052;2023-06-22T12:17:00;6.65;;;3.22;;
58366;SDS011;57745;42.524;12.052;2023-06-22T12:19:26;8.63;;;2.83;;
58366;SDS011;57745;42.524;12.052;2023-06-22T12:21:51;6.18;;;2.28;;
58366;SDS011;57745;42.524;12.052;2023-06-22T12:24:17;5.78;;;2.25;;
58366;SDS011;57745;42.524;12.052;2023-06-22T12:26:42;6.72;;;2.08;;
58366;SDS011;57745;42.524;12.052;2023-06-22T12:29:08;5.45;;;1.95;;
58366;SDS011;57745;42.524;12.052;2023-06-22T12:31:35;8.93;;;2.80;;
58366;SDS011;57745;42.524;12.052;2023-06-22T12:34:01;5.25;;;2.38;;
58366;SDS011;57745;42.524;12.052;2023-06-22T12:36:27;4.05;;;2.22;;
58366;SDS011;57745;42.524;12.052;2023-06-22T12:38:52;10.18;;;2.40;;
58366;SDS011;57745;42.524;12.052;2023-06-22T12:41:19;6.07;;;2.50;;
58366;SDS011;57745;42.524;12.052;2023-06-22T12:43:44;5.38;;;2.28;;
58366;SDS011;57745;42.524;12.052;2023-06-22T12:46:10;5.25;;;2.08;;
58366;SDS011;57745;42.524;12.052;2023-06-22T12:48:35;5.68;;;1.85;;
58366;SDS011;57745;42.524;12.052;2023-06-22T12:51:06;5.00;;;1.98;;
58366;SDS011;57745;42.524;12.052;2023-06-22T12:53:32;4.25;;;1.77;;
58366;SDS011;57745;42.524;12.052;2023-06-22T12:55:57;6.05;;;1.75;;
58366;SDS011;57745;42.524;12.052;2023-06-22T12:58:23;5.07;;;2.25;;
58366;SDS011;57745;42.524;12.052;2023-06-22T13:00:48;6.75;;;2.00;;
58366;SDS011;57745;42.524;12.052;2023-06-22T13:03:14;5.00;;;2.15;;
58366;SDS011;57745;42.524;12.052;2023-06-22T13:05:39;8.50;;;2.30;;
58366;SDS011;57745;42.524;12.052;2023-06-22T13:08:05;7.20;;;1.92;;
58366;SDS011;57745;42.524;12.052;2023-06-22T13:10:30;5.57;;;2.15;;
58366;SDS011;57745;42.524;12.052;2023-06-22T13:12:56;3.78;;;2.20;;
58366;SDS011;57745;42.524;12.052;2023-06-22T13:15:25;6.28;;;2.92;;
58366;SDS011;57745;42.524;12.052;2023-06-22T13:17:52;8.68;;;3.05;;
58366;SDS011;57745;42.524;12.052;2023-06-22T13:20:17;8.80;;;2.65;;
58366;SDS011;57745;42.524;12.052;2023-06-22T13:22:43;7.25;;;3.10;;
58366;SDS011;57745;42.524;12.052;2023-06-22T13:25:09;5.60;;;2.90;;
58366;SDS011;57745;42.524;12.052;2023-06-22T13:27:37;10.30;;;2.88;;
58366;SDS011;57745;42.524;12.052;2023-06-22T13:30:06;10.88;;;3.42;;
58366;SDS011;57745;42.524;12.052;2023-06-22T13:32:33;16.58;;;3.60;;
58366;SDS011;57745;42.524;12.052;2023-06-22T13:34:58;8.90;;;2.97;;
58366;SDS011;57745;42.524;12.052;2023-06-22T13:37:25;11.95;;;3.17;;
58366;SDS011;57745;42.524;12.052;2023-06-22T13:39:51;10.23;;;2.95;;
58366;SDS011;57745;42.524;12.052;2023-06-22T13:42:16;10.05;;;2.95;;
58366;SDS011;57745;42.524;12.052;2023-06-22T13:44:41;8.27;;;3.20;;
58366;SDS011;57745;42.524;12.052;2023-06-22T13:47:07;13.38;;;3.15;;
58366;SDS011;57745;42.524;12.052;2023-06-22T13:49:33;8.00;;;3.00;;
58366;SDS011;57745;42.524;12.052;2023-06-22T13:51:58;16.42;;;3.38;;
58366;SDS011;57745;42.524;12.052;2023-06-22T13:54:24;18.75;;;3.25;;
58366;SDS011;57745;42.524;12.052;2023-06-22T13:56:50;8.80;;;3.10;;
58366;SDS011;57745;42.524;12.052;2023-06-22T13:59:15;8.73;;;3.08;;
58366;SDS011;57745;42.524;12.052;2023-06-22T14:01:41;10.45;;;3.33;;
58366;SDS011;57745;42.524;12.052;2023-06-22T14:04:08;13.52;;;3.22;;
58366;SDS011;57745;42.524;12.052;2023-06-22T14:06:33;11.07;;;3.25;;
58366;SDS011;57745;42.524;12.052;2023-06-22T14:08:59;9.45;;;3.13;;
58366;SDS011;57745;42.524;12.052;2023-06-22T14:11:24;17.30;;;3.92;;
58366;SDS011;57745;42.524;12.052;2023-06-22T14:13:50;10.07;;;3.40;;
58366;SDS011;57745;42.524;12.052;2023-06-22T14:16:17;16.15;;;4.30;;
58366;SDS011;57745;42.524;12.052;2023-06-22T14:18:42;13.55;;;3.58;;
58366;SDS011;57745;42.524;12.052;2023-06-22T14:21:08;11.50;;;3.20;;
58366;SDS011;57745;42.524;12.052;2023-06-22T14:23:33;9.02;;;3.03;;
58366;SDS011;57745;42.524;12.052;2023-06-22T14:25:59;10.18;;;3.75;;
58366;SDS011;57745;42.524;12.052;2023-06-22T14:28:24;8.40;;;3.17;;
58366;SDS011;57745;42.524;12.052;2023-06-22T14:30:50;10.32;;;3.50;;
58366;SDS011;57745;42.524;12.052;2023-06-22T14:33:15;8.35;;;3.67;;
58366;SDS011;57745;42.524;12.052;2023-06-22T14:35:41;12.88;;;3.63;;
58366;SDS011;57745;42.524;12.052;2023-06-22T14:38:06;11.07;;;3.58;;
58366;SDS011;57745;42.524;12.052;2023-06-22T14:40:31;12.32;;;3.50;;